sensor_id;sensor_type;location;lat;lon;timestamp;pressure;altitude;pressure_sealevel;temperature;humidity
56582;BME280;42463;52.214;21.238;2022-09-09T00:02:35;100137.67;;;13.85;66.29
56582;BME280;42463;52.214;21.238;2022-09-09T00:05:12;100136.59;;;13.83;66.93
56582;BME280;42463;52.214;21.238;2022-09-09T00:07:43;100135.42;;;13.78;66.86
56582;BME280;42463;52.214;21.238;2022-09-09T00:10:19;100136.66;;;13.72;67.25
56582;BME280;42463;52.214;21.238;2022-09-09T00:12:53;100129.05;;;13.67;67.46
56582;BME280;42463;52.214;21.238;2022-09-09T00:15:21;100129.91;;;13.62;68.09
56582;BME280;42463;52.214;21.238;2022-09-09T00:17:50;100130.78;;;13.60;67.75
56582;BME280;42463;52.214;21.238;2022-09-09T00:20:20;100130.23;;;13.59;67.93
56582;BME280;42463;52.214;21.238;2022-09-09T00:22:53;100126.55;;;13.58;67.89
56582;BME280;42463;52.214;21.238;2022-09-09T00:25:24;100125.30;;;13.58;68.14
56582;BME280;42463;52.214;21.238;2022-09-09T00:27:51;100121.43;;;13.57;68.16
56582;BME280;42463;52.214;21.238;2022-09-09T00:30:19;100120.45;;;13.55;68.35
56582;BME280;42463;52.214;21.238;2022-09-09T00:32:45;100118.94;;;13.53;68.64
56582;BME280;42463;52.214;21.238;2022-09-09T00:35:18;100116.05;;;13.52;68.81
56582;BME280;42463;52.214;21.238;2022-09-09T00:37:46;100114.08;;;13.49;68.85
56582;BME280;42463;52.214;21.238;2022-09-09T00:40:24;100109.89;;;13.47;68.88
56582;BME280;42463;52.214;21.238;2022-09-09T00:42:58;100114.63;;;13.47;69.44
56582;BME280;42463;52.214;21.238;2022-09-09T00:45:37;100108.65;;;13.44;69.27
56582;BME280;42463;52.214;21.238;2022-09-09T00:48:10;100105.66;;;13.42;69.51
56582;BME280;42463;52.214;21.238;2022-09-09T00:50:44;100106.40;;;13.39;69.35
56582;BME280;42463;52.214;21.238;2022-09-09T00:53:23;100106.02;;;13.36;69.47
56582;BME280;42463;52.214;21.238;2022-09-09T00:55:56;100104.23;;;13.34;69.84
56582;BME280;42463;52.214;21.238;2022-09-09T00:58:23;100103.26;;;13.35;69.82
56582;BME280;42463;52.214;21.238;2022-09-09T01:04:16;100096.70;;;13.37;70.10
56582;BME280;42463;52.214;21.238;2022-09-09T01:06:44;100100.13;;;13.38;70.00
56582;BME280;42463;52.214;21.238;2022-09-09T01:09:21;100098.50;;;13.38;70.07
56582;BME280;42463;52.214;21.238;2022-09-09T01:12:00;100100.63;;;13.37;70.57
56582;BME280;42463;52.214;21.238;2022-09-09T01:14:39;100102.05;;;13.36;70.48
56582;BME280;42463;52.214;21.238;2022-09-09T01:17:11;100104.71;;;13.37;70.56
56582;BME280;42463;52.214;21.238;2022-09-09T01:19:48;100102.11;;;13.35;70.41
56582;BME280;42463;52.214;21.238;2022-09-09T01:22:26;100103.92;;;13.32;70.80
56582;BME280;42463;52.214;21.238;2022-09-09T01:25:11;100101.15;;;13.30;70.71
56582;BME280;42463;52.214;21.238;2022-09-09T01:27:51;100098.65;;;13.29;70.82
56582;BME280;42463;52.214;21.238;2022-09-09T01:30:19;100091.20;;;13.27;71.00
56582;BME280;42463;52.214;21.238;2022-09-09T01:32:47;100083.15;;;13.23;71.23
56582;BME280;42463;52.214;21.238;2022-09-09T01:35:18;100091.65;;;13.24;71.15
56582;BME280;42463;52.214;21.238;2022-09-09T01:37:46;100088.98;;;13.23;71.52
56582;BME280;42463;52.214;21.238;2022-09-09T01:40:11;100088.39;;;13.22;71.48
56582;BME280;42463;52.214;21.238;2022-09-09T01:42:36;100090.15;;;13.21;71.48
56582;BME280;42463;52.214;21.238;2022-09-09T01:45:00;100085.08;;;13.22;71.65
56582;BME280;42463;52.214;21.238;2022-09-09T01:47:25;100083.80;;;13.24;71.60
56582;BME280;42463;52.214;21.238;2022-09-09T01:50:03;100085.88;;;13.25;71.52
56582;BME280;42463;52.214;21.238;2022-09-09T01:52:27;100094.36;;;13.27;71.42
56582;BME280;42463;52.214;21.238;2022-09-09T01:54:53;100094.68;;;13.27;71.73
56582;BME280;42463;52.214;21.238;2022-09-09T01:57:25;100092.62;;;13.26;71.50
56582;BME280;42463;52.214;21.238;2022-09-09T02:00:03;100087.45;;;13.24;71.61
56582;BME280;42463;52.214;21.238;2022-09-09T02:02:41;100085.92;;;13.25;71.76
56582;BME280;42463;52.214;21.238;2022-09-09T02:05:21;100083.85;;;13.26;71.73
56582;BME280;42463;52.214;21.238;2022-09-09T02:07:49;100078.35;;;13.25;71.82
56582;BME280;42463;52.214;21.238;2022-09-09T02:10:28;100082.31;;;13.27;71.87
56582;BME280;42463;52.214;21.238;2022-09-09T02:13:07;100084.48;;;13.29;71.98
56582;BME280;42463;52.214;21.238;2022-09-09T02:15:38;100086.28;;;13.30;71.92
56582;BME280;42463;52.214;21.238;2022-09-09T02:18:08;100084.98;;;13.30;71.96
56582;BME280;42463;52.214;21.238;2022-09-09T02:20:34;100081.65;;;13.29;72.08
56582;BME280;42463;52.214;21.238;2022-09-09T02:23:00;100079.72;;;13.25;72.16
56582;BME280;42463;52.214;21.238;2022-09-09T02:25:28;100084.24;;;13.23;72.19
56582;BME280;42463;52.214;21.238;2022-09-09T02:27:58;100083.44;;;13.20;72.86
56582;BME280;42463;52.214;21.238;2022-09-09T02:30:23;100084.91;;;13.20;72.67
56582;BME280;42463;52.214;21.238;2022-09-09T02:32:53;100081.90;;;13.23;72.70
56582;BME280;42463;52.214;21.238;2022-09-09T02:35:25;100082.67;;;13.23;72.58
56582;BME280;42463;52.214;21.238;2022-09-09T02:37:53;100079.79;;;13.23;72.76
56582;BME280;42463;52.214;21.238;2022-09-09T02:40:20;100082.55;;;13.24;72.88
56582;BME280;42463;52.214;21.238;2022-09-09T02:42:50;100088.00;;;13.25;72.87
56582;BME280;42463;52.214;21.238;2022-09-09T02:45:18;100084.14;;;13.24;73.05
56582;BME280;42463;52.214;21.238;2022-09-09T02:47:50;100084.65;;;13.20;73.09
56582;BME280;42463;52.214;21.238;2022-09-09T02:50:19;100086.00;;;13.21;72.99
56582;BME280;42463;52.214;21.238;2022-09-09T02:52:54;100087.35;;;13.22;73.08
56582;BME280;42463;52.214;21.238;2022-09-09T02:55:27;100087.08;;;13.23;73.27
56582;BME280;42463;52.214;21.238;2022-09-09T02:57:56;100085.22;;;13.25;72.97
56582;BME280;42463;52.214;21.238;2022-09-09T03:00:27;100080.40;;;13.29;73.29
56582;BME280;42463;52.214;21.238;2022-09-09T03:02:55;100086.39;;;13.32;73.26
56582;BME280;42463;52.214;21.238;2022-09-09T03:05:20;100087.26;;;13.31;73.14
56582;BME280;42463;52.214;21.238;2022-09-09T03:07:46;100094.11;;;13.32;73.31
56582;BME280;42463;52.214;21.238;2022-09-09T03:10:11;100083.74;;;13.36;73.33
56582;BME280;42463;52.214;21.238;2022-09-09T03:12:36;100090.32;;;13.39;73.05
56582;BME280;42463;52.214;21.238;2022-09-09T03:15:02;100090.68;;;13.42;73.07
56582;BME280;42463;52.214;21.238;2022-09-09T03:17:26;100089.26;;;13.44;73.15
56582;BME280;42463;52.214;21.238;2022-09-09T03:19:51;100084.41;;;13.43;73.19
56582;BME280;42463;52.214;21.238;2022-09-09T03:22:18;100082.07;;;13.43;73.10
56582;BME280;42463;52.214;21.238;2022-09-09T03:24:43;100083.05;;;13.43;73.31
56582;BME280;42463;52.214;21.238;2022-09-09T03:27:07;100080.33;;;13.43;73.37
56582;BME280;42463;52.214;21.238;2022-09-09T03:29:33;100082.45;;;13.43;73.24
56582;BME280;42463;52.214;21.238;2022-09-09T03:31:58;100077.06;;;13.42;73.51
56582;BME280;42463;52.214;21.238;2022-09-09T03:34:23;100081.20;;;13.43;73.70
56582;BME280;42463;52.214;21.238;2022-09-09T03:36:47;100083.88;;;13.42;73.56
56582;BME280;42463;52.214;21.238;2022-09-09T03:39:13;100083.27;;;13.44;73.51
56582;BME280;42463;52.214;21.238;2022-09-09T03:41:38;100078.91;;;13.43;73.59
56582;BME280;42463;52.214;21.238;2022-09-09T03:44:03;100076.12;;;13.45;73.60
56582;BME280;42463;52.214;21.238;2022-09-09T03:46:31;100078.92;;;13.49;73.46
56582;BME280;42463;52.214;21.238;2022-09-09T03:48:56;100076.95;;;13.51;73.55
56582;BME280;42463;52.214;21.238;2022-09-09T03:51:21;100073.91;;;13.53;73.52
56582;BME280;42463;52.214;21.238;2022-09-09T03:53:45;100069.87;;;13.55;73.50
56582;BME280;42463;52.214;21.238;2022-09-09T03:56:11;100072.27;;;13.56;73.53
56582;BME280;42463;52.214;21.238;2022-09-09T03:58:36;100067.36;;;13.55;73.73
56582;BME280;42463;52.214;21.238;2022-09-09T04:01:05;100071.40;;;13.53;73.62
56582;BME280;42463;52.214;21.238;2022-09-09T04:03:32;100068.03;;;13.54;73.59
56582;BME280;42463;52.214;21.238;2022-09-09T04:05:58;100075.00;;;13.55;73.79
56582;BME280;42463;52.214;21.238;2022-09-09T04:08:23;100071.72;;;13.56;73.58
56582;BME280;42463;52.214;21.238;2022-09-09T04:10:49;100071.92;;;13.58;73.59
56582;BME280;42463;52.214;21.238;2022-09-09T04:13:14;100072.58;;;13.59;73.62
56582;BME280;42463;52.214;21.238;2022-09-09T04:15:40;100080.42;;;13.57;73.49
56582;BME280;42463;52.214;21.238;2022-09-09T04:18:05;100083.97;;;13.59;73.55
56582;BME280;42463;52.214;21.238;2022-09-09T04:20:30;100081.28;;;13.61;73.56
56582;BME280;42463;52.214;21.238;2022-09-09T04:22:55;100085.21;;;13.60;73.42
56582;BME280;42463;52.214;21.238;2022-09-09T04:25:19;100088.65;;;13.59;73.61
56582;BME280;42463;52.214;21.238;2022-09-09T04:27:44;100088.98;;;13.60;73.63
56582;BME280;42463;52.214;21.238;2022-09-09T04:30:10;100085.97;;;13.61;73.63
56582;BME280;42463;52.214;21.238;2022-09-09T04:32:36;100088.67;;;13.64;73.68
56582;BME280;42463;52.214;21.238;2022-09-09T04:35:00;100087.65;;;13.61;73.47
56582;BME280;42463;52.214;21.238;2022-09-09T04:37:25;100087.92;;;13.62;73.50
56582;BME280;42463;52.214;21.238;2022-09-09T04:39:49;100088.02;;;13.65;73.83
56582;BME280;42463;52.214;21.238;2022-09-09T04:42:14;100086.14;;;13.69;73.73
56582;BME280;42463;52.214;21.238;2022-09-09T04:44:39;100079.40;;;13.73;73.71
56582;BME280;42463;52.214;21.238;2022-09-09T04:47:05;100085.64;;;13.79;73.43
56582;BME280;42463;52.214;21.238;2022-09-09T04:49:29;100083.66;;;13.80;73.38
56582;BME280;42463;52.214;21.238;2022-09-09T04:51:55;100083.16;;;13.81;73.51
56582;BME280;42463;52.214;21.238;2022-09-09T04:54:19;100088.17;;;13.81;73.41
56582;BME280;42463;52.214;21.238;2022-09-09T04:56:44;100090.24;;;13.81;73.31
56582;BME280;42463;52.214;21.238;2022-09-09T04:59:09;100088.02;;;13.81;73.49
56582;BME280;42463;52.214;21.238;2022-09-09T05:01:39;100092.48;;;13.81;73.43
56582;BME280;42463;52.214;21.238;2022-09-09T05:04:04;100095.23;;;13.81;73.43
56582;BME280;42463;52.214;21.238;2022-09-09T05:06:30;100096.52;;;13.82;73.33
56582;BME280;42463;52.214;21.238;2022-09-09T05:08:56;100095.70;;;13.82;73.53
56582;BME280;42463;52.214;21.238;2022-09-09T05:11:23;100092.36;;;13.83;73.50
56582;BME280;42463;52.214;21.238;2022-09-09T05:13:51;100093.02;;;13.83;73.43
56582;BME280;42463;52.214;21.238;2022-09-09T05:16:16;100096.70;;;13.81;73.51
56582;BME280;42463;52.214;21.238;2022-09-09T05:18:42;100097.50;;;13.81;73.56
56582;BME280;42463;52.214;21.238;2022-09-09T05:21:07;100100.33;;;13.82;73.57
56582;BME280;42463;52.214;21.238;2022-09-09T05:23:32;100102.30;;;13.82;73.53
56582;BME280;42463;52.214;21.238;2022-09-09T05:26:00;100103.83;;;13.82;73.46
56582;BME280;42463;52.214;21.238;2022-09-09T05:28:26;100100.17;;;13.81;73.34
56582;BME280;42463;52.214;21.238;2022-09-09T05:30:58;100101.64;;;13.82;73.44
56582;BME280;42463;52.214;21.238;2022-09-09T05:33:24;100104.50;;;13.85;73.62
56582;BME280;42463;52.214;21.238;2022-09-09T05:35:56;100106.41;;;13.87;73.63
56582;BME280;42463;52.214;21.238;2022-09-09T05:38:21;100109.99;;;13.88;73.73
56582;BME280;42463;52.214;21.238;2022-09-09T05:40:49;100110.36;;;13.90;73.68
56582;BME280;42463;52.214;21.238;2022-09-09T05:43:16;100112.06;;;13.89;73.74
56582;BME280;42463;52.214;21.238;2022-09-09T05:45:40;100111.26;;;13.87;73.86
56582;BME280;42463;52.214;21.238;2022-09-09T05:48:06;100114.59;;;13.86;74.00
56582;BME280;42463;52.214;21.238;2022-09-09T05:50:31;100109.14;;;13.85;73.93
56582;BME280;42463;52.214;21.238;2022-09-09T05:52:56;100112.57;;;13.87;74.07
56582;BME280;42463;52.214;21.238;2022-09-09T05:55:21;100111.84;;;13.89;74.14
56582;BME280;42463;52.214;21.238;2022-09-09T05:57:50;100116.89;;;13.92;74.15
56582;BME280;42463;52.214;21.238;2022-09-09T06:00:15;100114.70;;;13.94;73.97
56582;BME280;42463;52.214;21.238;2022-09-09T06:02:42;100113.39;;;13.93;74.08
56582;BME280;42463;52.214;21.238;2022-09-09T06:05:09;100116.10;;;13.95;74.02
56582;BME280;42463;52.214;21.238;2022-09-09T06:07:34;100118.48;;;13.99;74.19
56582;BME280;42463;52.214;21.238;2022-09-09T06:09:58;100124.21;;;13.98;73.92
56582;BME280;42463;52.214;21.238;2022-09-09T06:12:23;100123.83;;;13.98;74.03
56582;BME280;42463;52.214;21.238;2022-09-09T06:14:47;100126.87;;;14.00;74.01
56582;BME280;42463;52.214;21.238;2022-09-09T06:17:13;100126.75;;;14.01;74.19
56582;BME280;42463;52.214;21.238;2022-09-09T06:19:38;100127.98;;;14.02;74.14
56582;BME280;42463;52.214;21.238;2022-09-09T06:22:04;100131.27;;;14.02;73.94
56582;BME280;42463;52.214;21.238;2022-09-09T06:24:29;100134.82;;;14.02;74.19
56582;BME280;42463;52.214;21.238;2022-09-09T06:26:54;100138.14;;;14.04;74.21
56582;BME280;42463;52.214;21.238;2022-09-09T06:29:23;100136.31;;;14.06;74.05
56582;BME280;42463;52.214;21.238;2022-09-09T06:31:48;100137.52;;;14.07;74.13
56582;BME280;42463;52.214;21.238;2022-09-09T06:34:16;100139.76;;;14.06;74.11
56582;BME280;42463;52.214;21.238;2022-09-09T06:36:46;100139.48;;;14.05;74.27
56582;BME280;42463;52.214;21.238;2022-09-09T06:39:10;100141.63;;;14.03;74.46
56582;BME280;42463;52.214;21.238;2022-09-09T06:41:37;100137.70;;;14.03;74.33
56582;BME280;42463;52.214;21.238;2022-09-09T06:44:05;100142.54;;;14.05;74.36
56582;BME280;42463;52.214;21.238;2022-09-09T06:46:35;100147.57;;;14.04;74.35
56582;BME280;42463;52.214;21.238;2022-09-09T06:49:00;100150.25;;;14.03;74.58
56582;BME280;42463;52.214;21.238;2022-09-09T06:51:26;100152.48;;;14.03;74.50
56582;BME280;42463;52.214;21.238;2022-09-09T06:53:53;100155.81;;;14.04;74.55
56582;BME280;42463;52.214;21.238;2022-09-09T06:56:24;100149.37;;;14.04;74.74
56582;BME280;42463;52.214;21.238;2022-09-09T06:58:51;100154.32;;;14.06;74.67
56582;BME280;42463;52.214;21.238;2022-09-09T07:01:22;100157.63;;;14.08;74.72
56582;BME280;42463;52.214;21.238;2022-09-09T07:03:49;100155.48;;;14.11;74.70
56582;BME280;42463;52.214;21.238;2022-09-09T07:06:16;100157.29;;;14.12;74.80
56582;BME280;42463;52.214;21.238;2022-09-09T07:09:20;100161.05;;;14.11;74.79
56582;BME280;42463;52.214;21.238;2022-09-09T07:11:47;100160.40;;;14.11;74.70
56582;BME280;42463;52.214;21.238;2022-09-09T07:14:12;100161.48;;;14.13;74.86
56582;BME280;42463;52.214;21.238;2022-09-09T07:16:38;100160.77;;;14.12;74.83
56582;BME280;42463;52.214;21.238;2022-09-09T07:19:04;100160.33;;;14.14;74.97
56582;BME280;42463;52.214;21.238;2022-09-09T07:21:30;100162.17;;;14.14;74.86
56582;BME280;42463;52.214;21.238;2022-09-09T07:23:55;100159.60;;;14.16;74.86
56582;BME280;42463;52.214;21.238;2022-09-09T07:26:21;100165.83;;;14.15;74.67
56582;BME280;42463;52.214;21.238;2022-09-09T07:28:48;100169.36;;;14.16;74.87
56582;BME280;42463;52.214;21.238;2022-09-09T07:31:15;100177.68;;;14.19;75.00
56582;BME280;42463;52.214;21.238;2022-09-09T07:33:40;100181.09;;;14.16;74.67
56582;BME280;42463;52.214;21.238;2022-09-09T07:36:06;100183.73;;;14.13;74.72
56582;BME280;42463;52.214;21.238;2022-09-09T07:38:31;100182.00;;;14.12;74.98
56582;BME280;42463;52.214;21.238;2022-09-09T07:41:04;100190.28;;;14.12;75.13
56582;BME280;42463;52.214;21.238;2022-09-09T07:43:30;100190.06;;;14.13;75.37
56582;BME280;42463;52.214;21.238;2022-09-09T07:46:00;100188.25;;;14.14;75.23
56582;BME280;42463;52.214;21.238;2022-09-09T07:48:25;100189.31;;;14.12;75.30
56582;BME280;42463;52.214;21.238;2022-09-09T07:50:50;100186.23;;;14.13;75.57
56582;BME280;42463;52.214;21.238;2022-09-09T07:53:14;100186.60;;;14.16;75.48
56582;BME280;42463;52.214;21.238;2022-09-09T07:55:39;100190.98;;;14.21;75.37
56582;BME280;42463;52.214;21.238;2022-09-09T07:58:03;100194.51;;;14.24;75.58
56582;BME280;42463;52.214;21.238;2022-09-09T08:00:28;100193.48;;;14.24;75.33
56582;BME280;42463;52.214;21.238;2022-09-09T08:02:53;100198.56;;;14.23;75.26
56582;BME280;42463;52.214;21.238;2022-09-09T08:05:18;100203.05;;;14.20;75.28
56582;BME280;42463;52.214;21.238;2022-09-09T08:07:44;100207.03;;;14.20;75.57
56582;BME280;42463;52.214;21.238;2022-09-09T08:10:09;100210.27;;;14.24;75.65
56582;BME280;42463;52.214;21.238;2022-09-09T08:12:36;100214.14;;;14.28;75.59
56582;BME280;42463;52.214;21.238;2022-09-09T08:15:01;100216.02;;;14.31;75.45
56582;BME280;42463;52.214;21.238;2022-09-09T08:17:27;100213.81;;;14.34;75.43
56582;BME280;42463;52.214;21.238;2022-09-09T08:19:53;100216.08;;;14.37;75.59
56582;BME280;42463;52.214;21.238;2022-09-09T08:22:20;100215.95;;;14.39;75.59
56582;BME280;42463;52.214;21.238;2022-09-09T08:24:46;100210.95;;;14.37;75.31
56582;BME280;42463;52.214;21.238;2022-09-09T08:27:10;100205.06;;;14.36;75.22
56582;BME280;42463;52.214;21.238;2022-09-09T08:29:35;100208.05;;;14.38;75.59
56582;BME280;42463;52.214;21.238;2022-09-09T08:32:01;100215.40;;;14.41;75.41
56582;BME280;42463;52.214;21.238;2022-09-09T08:34:26;100218.47;;;14.41;75.67
56582;BME280;42463;52.214;21.238;2022-09-09T08:36:52;100217.91;;;14.44;75.69
56582;BME280;42463;52.214;21.238;2022-09-09T08:39:21;100216.21;;;14.46;75.35
56582;BME280;42463;52.214;21.238;2022-09-09T08:41:56;100221.83;;;14.47;75.50
56582;BME280;42463;52.214;21.238;2022-09-09T08:44:35;100226.30;;;14.47;75.26
56582;BME280;42463;52.214;21.238;2022-09-09T08:47:09;100230.33;;;14.49;75.29
56582;BME280;42463;52.214;21.238;2022-09-09T08:49:51;100225.98;;;14.53;75.47
56582;BME280;42463;52.214;21.238;2022-09-09T08:52:23;100229.41;;;14.56;75.33
56582;BME280;42463;52.214;21.238;2022-09-09T08:54:51;100236.77;;;14.57;75.23
56582;BME280;42463;52.214;21.238;2022-09-09T08:57:22;100242.51;;;14.59;75.35
56582;BME280;42463;52.214;21.238;2022-09-09T08:59:50;100241.23;;;14.61;75.16
56582;BME280;42463;52.214;21.238;2022-09-09T09:02:20;100239.38;;;14.60;75.25
56582;BME280;42463;52.214;21.238;2022-09-09T09:04:55;100239.38;;;14.60;75.18
56582;BME280;42463;52.214;21.238;2022-09-09T09:07:33;100237.40;;;14.63;75.23
56582;BME280;42463;52.214;21.238;2022-09-09T09:10:04;100235.45;;;14.66;75.48
56582;BME280;42463;52.214;21.238;2022-09-09T09:12:38;100235.55;;;14.68;75.40
56582;BME280;42463;52.214;21.238;2022-09-09T09:15:14;100241.58;;;14.66;75.54
56582;BME280;42463;52.214;21.238;2022-09-09T09:17:41;100242.53;;;14.70;75.42
56582;BME280;42463;52.214;21.238;2022-09-09T09:20:14;100246.45;;;14.72;75.42
56582;BME280;42463;52.214;21.238;2022-09-09T09:22:46;100254.66;;;14.75;75.24
56582;BME280;42463;52.214;21.238;2022-09-09T09:25:17;100252.81;;;14.75;75.41
56582;BME280;42463;52.214;21.238;2022-09-09T09:27:45;100255.95;;;14.77;75.54
56582;BME280;42463;52.214;21.238;2022-09-09T09:30:17;100257.55;;;14.77;75.39
56582;BME280;42463;52.214;21.238;2022-09-09T09:32:47;100261.06;;;14.74;75.31
56582;BME280;42463;52.214;21.238;2022-09-09T09:35:15;100260.25;;;14.73;75.46
56582;BME280;42463;52.214;21.238;2022-09-09T09:37:41;100258.59;;;14.76;75.45
56582;BME280;42463;52.214;21.238;2022-09-09T09:40:13;100258.89;;;14.79;75.40
56582;BME280;42463;52.214;21.238;2022-09-09T09:42:46;100263.83;;;14.82;75.28
56582;BME280;42463;52.214;21.238;2022-09-09T09:45:19;100262.06;;;14.85;75.26
56582;BME280;42463;52.214;21.238;2022-09-09T09:47:56;100264.88;;;14.87;75.20
56582;BME280;42463;52.214;21.238;2022-09-09T09:50:21;100264.35;;;14.85;75.13
56582;BME280;42463;52.214;21.238;2022-09-09T09:52:57;100265.92;;;14.86;75.18
56582;BME280;42463;52.214;21.238;2022-09-09T09:55:22;100266.85;;;14.87;75.11
56582;BME280;42463;52.214;21.238;2022-09-09T09:57:48;100267.34;;;14.87;75.12
56582;BME280;42463;52.214;21.238;2022-09-09T10:00:17;100270.58;;;14.86;75.28
56582;BME280;42463;52.214;21.238;2022-09-09T10:02:46;100264.97;;;14.84;75.23
56582;BME280;42463;52.214;21.238;2022-09-09T10:05:17;100262.73;;;14.82;75.39
56582;BME280;42463;52.214;21.238;2022-09-09T10:07:45;100263.21;;;14.84;75.59
56582;BME280;42463;52.214;21.238;2022-09-09T10:10:23;100267.50;;;14.88;75.60
56582;BME280;42463;52.214;21.238;2022-09-09T10:12:57;100264.63;;;14.85;75.64
56582;BME280;42463;52.214;21.238;2022-09-09T10:15:35;100264.20;;;14.84;75.74
56582;BME280;42463;52.214;21.238;2022-09-09T10:18:13;100265.20;;;14.88;75.62
56582;BME280;42463;52.214;21.238;2022-09-09T10:20:48;100268.59;;;14.93;75.80
56582;BME280;42463;52.214;21.238;2022-09-09T10:23:29;100269.02;;;14.95;75.74
56582;BME280;42463;52.214;21.238;2022-09-09T10:26:09;100276.81;;;14.97;75.70
56582;BME280;42463;52.214;21.238;2022-09-09T10:29:05;100279.49;;;14.96;75.34
56582;BME280;42463;52.214;21.238;2022-09-09T10:31:40;100281.89;;;14.97;75.66
56582;BME280;42463;52.214;21.238;2022-09-09T10:34:19;100282.66;;;14.97;75.45
56582;BME280;42463;52.214;21.238;2022-09-09T10:36:50;100288.44;;;14.98;75.64
56582;BME280;42463;52.214;21.238;2022-09-09T10:39:22;100291.82;;;14.99;75.57
56582;BME280;42463;52.214;21.238;2022-09-09T10:41:57;100293.16;;;15.02;75.60
56582;BME280;42463;52.214;21.238;2022-09-09T10:44:36;100297.14;;;15.03;75.38
56582;BME280;42463;52.214;21.238;2022-09-09T10:47:44;100298.48;;;15.05;75.72
56582;BME280;42463;52.214;21.238;2022-09-09T10:50:29;100303.93;;;15.07;75.56
56582;BME280;42463;52.214;21.238;2022-09-09T10:53:02;100304.52;;;15.09;75.64
56582;BME280;42463;52.214;21.238;2022-09-09T10:55:37;100308.59;;;15.11;75.67
56582;BME280;42463;52.214;21.238;2022-09-09T10:58:04;100313.45;;;15.12;75.71
56582;BME280;42463;52.214;21.238;2022-09-09T11:00:38;100320.39;;;15.13;75.42
56582;BME280;42463;52.214;21.238;2022-09-09T11:03:05;100325.25;;;15.12;75.40
56582;BME280;42463;52.214;21.238;2022-09-09T11:05:34;100326.90;;;15.11;75.56
56582;BME280;42463;52.214;21.238;2022-09-09T11:08:04;100331.87;;;15.13;75.54
56582;BME280;42463;52.214;21.238;2022-09-09T11:10:37;100338.66;;;15.17;75.73
56582;BME280;42463;52.214;21.238;2022-09-09T11:13:09;100337.48;;;15.19;75.43
56582;BME280;42463;52.214;21.238;2022-09-09T11:15:41;100337.81;;;15.20;75.41
56582;BME280;42463;52.214;21.238;2022-09-09T11:18:11;100344.21;;;15.20;75.47
56582;BME280;42463;52.214;21.238;2022-09-09T11:20:38;100342.96;;;15.18;75.33
56582;BME280;42463;52.214;21.238;2022-09-09T11:23:09;100340.19;;;15.17;75.53
56582;BME280;42463;52.214;21.238;2022-09-09T11:25:38;100341.30;;;15.20;75.72
56582;BME280;42463;52.214;21.238;2022-09-09T11:31:15;100335.98;;;15.29;75.33
56582;BME280;42463;52.214;21.238;2022-09-09T11:34:15;100339.92;;;15.35;75.56
56582;BME280;42463;52.214;21.238;2022-09-09T11:36:59;100345.83;;;15.40;75.39
56582;BME280;42463;52.214;21.238;2022-09-09T11:39:41;100351.86;;;15.43;75.04
56582;BME280;42463;52.214;21.238;2022-09-09T11:42:18;100352.60;;;15.47;74.96
56582;BME280;42463;52.214;21.238;2022-09-09T11:44:43;100352.89;;;15.50;74.98
56582;BME280;42463;52.214;21.238;2022-09-09T11:47:20;100356.52;;;15.49;74.81
56582;BME280;42463;52.214;21.238;2022-09-09T11:49:47;100361.71;;;15.48;74.66
56582;BME280;42463;52.214;21.238;2022-09-09T11:52:23;100359.27;;;15.47;74.96
56582;BME280;42463;52.214;21.238;2022-09-09T11:54:49;100359.73;;;15.49;74.96
56582;BME280;42463;52.214;21.238;2022-09-09T11:57:30;100362.39;;;15.51;74.78
56582;BME280;42463;52.214;21.238;2022-09-09T11:59:56;100352.00;;;15.51;74.84
56582;BME280;42463;52.214;21.238;2022-09-09T12:02:24;100348.29;;;15.51;74.80
56582;BME280;42463;52.214;21.238;2022-09-09T12:04:54;100348.45;;;15.50;74.75
56582;BME280;42463;52.214;21.238;2022-09-09T12:07:33;100346.59;;;15.51;74.93
56582;BME280;42463;52.214;21.238;2022-09-09T12:10:02;100352.22;;;15.52;74.83
56582;BME280;42463;52.214;21.238;2022-09-09T12:12:33;100348.91;;;15.49;74.62
56582;BME280;42463;52.214;21.238;2022-09-09T12:15:16;100349.62;;;15.49;74.72
56582;BME280;42463;52.214;21.238;2022-09-09T12:17:45;100350.48;;;15.45;74.57
56582;BME280;42463;52.214;21.238;2022-09-09T12:20:14;100354.91;;;15.44;74.80
56582;BME280;42463;52.214;21.238;2022-09-09T12:22:46;100355.31;;;15.43;74.75
56582;BME280;42463;52.214;21.238;2022-09-09T12:25:23;100352.77;;;15.40;74.87
56582;BME280;42463;52.214;21.238;2022-09-09T12:28:01;100356.93;;;15.39;74.93
56582;BME280;42463;52.214;21.238;2022-09-09T12:30:31;100365.81;;;15.37;75.01
56582;BME280;42463;52.214;21.238;2022-09-09T12:33:35;100356.04;;;15.35;75.10
56582;BME280;42463;52.214;21.238;2022-09-09T12:36:00;100363.84;;;15.38;75.36
56582;BME280;42463;52.214;21.238;2022-09-09T12:38:31;100364.30;;;15.41;75.23
56582;BME280;42463;52.214;21.238;2022-09-09T12:40:58;100365.36;;;15.44;75.09
56582;BME280;42463;52.214;21.238;2022-09-09T12:43:25;100363.48;;;15.46;75.20
56582;BME280;42463;52.214;21.238;2022-09-09T12:45:50;100363.52;;;15.48;75.30
56582;BME280;42463;52.214;21.238;2022-09-09T12:48:21;100368.16;;;15.48;75.21
56582;BME280;42463;52.214;21.238;2022-09-09T12:50:48;100364.02;;;15.47;74.96
56582;BME280;42463;52.214;21.238;2022-09-09T12:53:18;100366.58;;;15.49;75.18
56582;BME280;42463;52.214;21.238;2022-09-09T12:55:53;100360.64;;;15.51;75.07
56582;BME280;42463;52.214;21.238;2022-09-09T12:58:20;100349.88;;;15.51;74.99
56582;BME280;42463;52.214;21.238;2022-09-09T13:00:51;100346.40;;;15.49;74.93